• Join FlightAware (Why Join?)
  • Login
  • US Flag 
05:57AM EDT


 

Airport Tracker/Info


-or-


 

Live Flight TrackerFlight Track Log ✈ N30VP ✈ 28-Oct-2013 ✈ KAFP - KPBI

Flight Track Log - Related Links

Times and Time Zones

All times are in EDT time to prevent confusion due to time zone crossing. See the N30VP flight status page for this flight to view local times or setup timezone preferences in your user account.

Time Position Orientation Groundspeed Altitude Reporting Facility
EDT Latitude Longitude Course Direction KTS MPH feet Rate Location/Type
08:26AM 34.9864 -80.0711 250° West 168 193 2,300  Level Atlanta Center
08:26AM 34.9769 -80.1022 250° West 202 232 4,100 2,700 Climbing Atlanta Center
08:27AM 34.9542 -80.1667 247° West 246 283 6,200 3,060 Climbing Atlanta Center
08:29AM 34.7706 -80.1531 177° South 299 344 14,700 3,360 Climbing Jacksonville Center
08:30AM 34.6856 -80.0850 147° Southeast 316 364 17,600 2,820 Climbing Jacksonville Center
08:31AM 34.5986 -80.0247 150° Southeast 339 390 20,400 2,700 Climbing Jacksonville Center
08:32AM 34.5039 -79.9875 162° South 357 411 23,000 2,280 Climbing Jacksonville Center
08:33AM 34.3972 -79.9686 172° South 364 419 25,000 1,980 Climbing Jacksonville Center
08:34AM 34.2925 -79.9494 171° South 378 435 27,000 1,680 Climbing Jacksonville Center
08:35AM 34.1814 -79.9356 174° South 396 456 28,400 960 Climbing Jacksonville Center
08:36AM 34.0683 -79.9144 171° South 403 464 29,000 360 Climbing Jacksonville Center
08:37AM 33.9533 -79.8983 173° South 417 480 29,200 540 Climbing Jacksonville Center
08:38AM 33.8389 -79.9222 190° South 415 478 30,100 1,020 Climbing Jacksonville Center
08:39AM 33.7381 -79.9756 204° Southwest 409 471 31,300 900 Climbing Jacksonville Center
08:40AM 33.6347 -80.0264 202° Southwest 409 471 32,000 900 Climbing Jacksonville Center
08:41AM 33.5339 -80.0794 204° Southwest 402 463 33,100 1,500 Climbing Jacksonville Center
08:42AM 33.4325 -80.1300 203° Southwest 402 463 35,100 1,440 Climbing Jacksonville Center
08:43AM 33.3378 -80.1775 203° Southwest 390 449 36,000 420 Climbing Jacksonville Center
08:44AM 33.2386 -80.2328 205° Southwest 390 449 36,000  Level Jacksonville Center
08:45AM 33.1314 -80.2881 203° Southwest 412 474 36,000  Level Jacksonville Center
08:46AM 33.0319 -80.3306 200° South 428 493 36,000  Level Jacksonville Center
08:47AM 32.9206 -80.3906 204° Southwest 444 511 36,000 -180 Level Jacksonville Center
08:48AM 32.8150 -80.4431 203° Southwest 430 495 35,700 -660 Descending Jacksonville Center
08:49AM 32.7075 -80.4978 203° Southwest 425 489 34,700 -900 Descending Jacksonville Center
08:50AM 32.6000 -80.5500 202° Southwest 425 489 34,000 -360 Descending Jacksonville Center
08:51AM 32.4944 -80.6019 203° Southwest 419 482 34,000  Level Jacksonville Center
08:52AM 32.3911 -80.6539 203° Southwest 414 476 34,000  Level Jacksonville Center
08:53AM 32.2875 -80.7056 203° Southwest 414 476 34,000  Level Jacksonville Center
08:54AM 32.1758 -80.7597 202° Southwest 401 461 34,000  Level Jacksonville Center
08:55AM 32.0806 -80.8083 203° Southwest 408 470 34,000  Level Jacksonville Center
08:56AM 31.9603 -80.8603 200° South 413 475 34,000  Level Jacksonville Center
08:57AM 31.8481 -80.8872 192° South 419 482 34,000  Level Jacksonville Center
08:58AM 31.7461 -80.9089 190° South 425 489 34,000  Level Jacksonville Center
08:59AM 31.6169 -80.9383 191° South 425 489 34,000  Level Jacksonville Center
09:00AM 31.5025 -80.9628 190° South 424 488 34,000  Level Jacksonville Center
09:01AM 31.3964 -80.9869 191° South 427 491 34,000  Level Jacksonville Center
09:02AM 31.2819 -81.0158 192° South 422 486 34,000  Level Jacksonville Center
09:03AM 31.1694 -81.0375 189° South 422 486 34,000  Level Jacksonville Center
09:04AM 31.0553 -81.0642 191° South 422 486 34,000  Level Jacksonville Center
09:05AM 30.9406 -81.0906 191° South 427 491 34,000  Level Jacksonville Center
09:06AM 30.8242 -81.1122 189° South 427 491 34,000  Level Jacksonville Center
09:07AM 30.7094 -81.1361 190° South 427 491 34,000  Level Jacksonville Center
09:08AM 30.5928 -81.1406 182° South 427 491 34,000  Level Jacksonville Center
09:09AM 30.4733 -81.1114 168° South 425 489 34,000  Level Jacksonville Center
09:10AM 30.3475 -81.0800 168° South 442 509 34,000  Level Jacksonville Center
09:11AM 30.2261 -81.0511 168° South 447 514 34,000  Level Jacksonville Center
09:12AM 30.1044 -81.0222 168° South 447 514 34,000  Level Jacksonville Center
09:13AM 29.9789 -80.9911 168° South 453 521 34,000  Level Jacksonville Center
09:14AM 29.8572 -80.9622 168° South 453 521 34,000  Level Jacksonville Center
09:15AM 29.7317 -80.9314 168° South 453 521 34,000  Level Jacksonville Center
09:17AM 29.5314 -80.8814 168° South 452 520 34,000  Level Miami Center
09:18AM 29.4236 -80.8583 169° South 457 526 34,000  Level Miami Center
09:19AM 29.3014 -80.8278 168° South 452 520 34,000  Level Miami Center
09:20AM 29.1769 -80.7994 169° South 457 526 34,000  Level Miami Center
09:21AM 29.0528 -80.7664 167° South 457 526 34,000  Level Miami Center
09:22AM 28.9161 -80.7331 168° South 457 526 34,000  Level Miami Center
09:23AM 28.7939 -80.7006 167° South 457 526 34,000  Level Miami Center
09:24AM 28.6697 -80.6608 164° South 457 526 34,000  Level Miami Center
09:25AM 28.5581 -80.6192 162° South 468 539 34,000 -600 Level Miami Center
09:26AM 28.4383 -80.5703 160° South 468 539 32,900 -1,920 Descending Miami Center
09:27AM 28.3164 -80.5236 161° South 438 504 30,200 -2,580 Descending Miami Center
09:28AM 28.2050 -80.4800 161° South 425 489 27,800 -2,280 Descending Miami Center
09:29AM 28.0933 -80.4364 161° South 420 483 25,700 -2,220 Descending Miami Center
09:30AM 27.9900 -80.3956 161° South 425 489 23,400 -2,400 Descending Miami Center
09:31AM 27.8803 -80.3547 162° South 425 489 21,000 -2,460 Descending Miami Center
09:32AM 27.7667 -80.3111 161° South 412 474 18,500 -2,340 Descending Miami Center
09:33AM 27.6714 -80.2756 162° South 385 443 16,400 -2,220 Descending Miami Center
09:34AM 27.5783 -80.2400 161° South 368 423 14,100 -2,280 Descending Miami Center
09:35AM 27.4956 -80.2047 159° South 360 414 11,900 -2,040 Descending Miami Center
09:36AM 27.4067 -80.1717 162° South 348 400 10,100 -960 Descending Miami Center
09:37AM 27.3236 -80.1414 162° South 308 354 10,000 -60 Descending Miami Center
09:38AM 27.2467 -80.1322 174° South 279 321 10,000 -600 Level Miami Center
09:39AM 27.1717 -80.1253 175° South 269 310 8,900 -1,320 Descending Miami Center
09:40AM 27.1008 -80.1233 179° South 274 315 7,400 -1,620 Descending Miami Center
09:41AM 27.0172 -80.1211 179° South 274 315 5,700 -1,560 Descending Miami Center
09:42AM 26.9464 -80.1167 177° South 269 310 4,300 -900 Descending Miami Center
09:43AM 26.8731 -80.1217 183° South 264 304 4,000 -540 Descending Miami Center
09:44AM 26.8178 -80.1667 216° Southwest 259 298 3,300 -1,020 Descending Miami Center
09:45AM 26.7583 -80.2092 213° Southwest 267 307 2,000 -1,320 Descending Miami Center
09:47AM 26.6832 -80.0956 170° South  Level Estimated
09:54AM 26.6832 -80.0956 170° South  Level Estimated
09:55AM 26.6832 -80.0956 170° South  Level Estimated
09:56AM 26.6832 -80.0956 170° South  Level Estimated
09:57AM 26.6832 -80.0956 170° South  Level Estimated